Burgin, KY (40310)

05:36 PM EDT del 22 Agosto 2014 (GMT -0400)
Rocky Fork | Change Station
CLOSE
Current Station
Stazione meteo personale
Location: Lancaster, KY
Altitudine: 804 ft
Stazioni meteo nelle vicinanze

Alt. 804 ft 37.78 °N, 84.70 °W | Updated 11 seconds ago

Partly Cloudy
Parzialmente nuvoloso
87.3 °F
Sembra 95 °F
N
3.6
Vento Variabile Vento da SO
Gusts 4.6 mph

Oggi
Massima -- | Minima -- °F
--% Possibilità di precip.
Ieri
Massima -- | Minima -- °F
Precip. -- in
7:00 AM 8:22 PM
Luna calante, 6% visible
Pressione 29.95 in
Visibilità 10.0 miglia
Nuvole Alcuni 3800 ft
Indice di calore 95 °F
Punto di rugiada 74 °F
Umidità 63%
Piovosità 0.00 in
Spessore del manto nevoso Non disponibile.
Raggi UV 0.7 fuori da 12
Polline 9.60 fuori da 12
Ozono Buono
PM2.5 Moderato
Flu Activity Non disponibile.
METAR KLEX 222054Z 25007KT 10SM FEW038 32/24 A2998 RMK AO2 LTG DSNT N AND NW SLP140 T03220239 56019

More Conditions Fewer Conditions

Pressione 29.95 in
Visibilità 10.0 miglia
Nuvole Alcuni 3800 ft
Indice di calore 95 °F
Punto di rugiada 74 °F
Umidità 63%
Piovosità 0.00 in
Spessore del manto nevoso Non disponibile.
Raggi UV 0.7 fuori da 12
Polline 9.60 fuori da 12
Ozono Buono
PM2.5 Moderato
Flu Activity Non disponibile.
METAR KLEX 222054Z 25007KT 10SM FEW038 32/24 A2998 RMK AO2 LTG DSNT N AND NW SLP140 T03220239 56019

More Conditions Fewer Conditions

10-Day Weather Forecast

Almanac

Astronomia

Aug. 22, 2014 Alba Tramonto
Ora attuale 07:00 EDT 20:22 EDT
Crepuscolo civile 06:33 EDT 20:49 EDT
Crepuscolo nautico 06:00 EDT 21:22 EDT
Crepuscolo astronomico 05:25 EDT 21:57 EDT
Luna 04:23 EDT 18:29 EDT
Estensione della luce visibile 14h 16m
Lunghezza del giorno
13h 21m
Tomorrow will be 2m 14s shorter.
Luna calante, 6% of the Moon is Illuminated
Oggi
Luna calante
Ago 25
Nuovo
Set 2
Primo quarto
Set 8
Luna piena
Set 15
Ultimo quarto

Gli estremi di oggi

State Highs State Lows

Community

WunderPhotos

Upload Photos

1,746,259 foto caricate!

Nearby

Qualità dell'aria

  Qualità dell'aria Indice AQ Inquinante
Ieri Buono
PM10
Ieri Buono
OZONE
Attuale Moderato
PM2.5
Attuale Buono
OZONE
Venerdì Moderato
PM2.5
Venerdì Moderato
OZONE
Sabato Moderato
PM2.5
Sabato Buono
OZONE
Domenica Moderato
PM2.5
Domenica Moderato
OZONE
Lunedì Moderato
PM2.5
Lunedì Moderato
OZONE

Profondità neve

Stazione Profondità Altitudine
Non sono state evidenziate nuove nevicate

Attività sismica

Città  Distanza Mag. Data & Ora
Non sono state riportate attività sismiche nelle vicinanze.
Minimo Magnitudo Mostrato è 2.5.

Temperature delle acque costiere

Località Temperatura
Nessun dato dalle stazioni

Stazioni meteo nelle vicinanze